DLH4EF EDDM-LGSR
Flight info
| Callsign | DLH4EF |
|---|---|
| Flight time | N/A |
| Altitude | 35000 |
| Route | VAVOR3Q VAVOR M867 RADIZ DCT REKTI DCT NEMEK DCT MAVAR DCT BITLA DCT KEA UL607 GENDO/N0400F230 L607 NETIS M601 PEXAN |
| Aircraft | A320/M-SDE3FGHIRWY/LB1 |
Departure
| Time | 2026-05-01 13:43 |
|---|---|
| Airport | Munich Airport (EDDM) |
Arrival
| Time | N/A |
|---|---|
| Airport | Santorini International Airport (LGSR) |
| Time | Latitude | Longitude | Altitude | Speed | Heading |
|---|---|---|---|---|---|
| 2026-05-01 13:09 | 48.35699 | 11.79712 | 1467 ft | 0 kts | 79° |
| 2026-05-01 13:29 | 48.35698 | 11.79704 | 1456 ft | 4 kts | 79° |
| 2026-05-01 13:30 | 48.35692 | 11.79560 | 1456 ft | 4 kts | 131° |
| 2026-05-01 13:31 | 48.35700 | 11.79550 | 1456 ft | 0 kts | 173° |
| 2026-05-01 13:33 | 48.35689 | 11.79551 | 1456 ft | 4 kts | 175° |
| 2026-05-01 13:33 | 48.35593 | 11.79534 | 1467 ft | 7 kts | 198° |
| 2026-05-01 13:34 | 48.35482 | 11.79478 | 1458 ft | 10 kts | 197° |
| 2026-05-01 13:34 | 48.35319 | 11.79477 | 1463 ft | 14 kts | 173° |
| 2026-05-01 13:35 | 48.35109 | 11.79513 | 1464 ft | 17 kts | 173° |
| 2026-05-01 13:35 | 48.34996 | 11.79534 | 1462 ft | 16 kts | 173° |
| 2026-05-01 13:35 | 48.34848 | 11.79560 | 1461 ft | 7 kts | 173° |
| 2026-05-01 13:36 | 48.34794 | 11.79551 | 1466 ft | 9 kts | 223° |
| 2026-05-01 13:36 | 48.34780 | 11.79441 | 1460 ft | 14 kts | 266° |
| 2026-05-01 13:36 | 48.34750 | 11.79027 | 1467 ft | 24 kts | 263° |
| 2026-05-01 13:37 | 48.34729 | 11.78785 | 1467 ft | 23 kts | 263° |
| 2026-05-01 13:37 | 48.34712 | 11.78559 | 1467 ft | 21 kts | 263° |
| 2026-05-01 13:37 | 48.34696 | 11.78348 | 1461 ft | 19 kts | 263° |
| 2026-05-01 13:37 | 48.34681 | 11.78146 | 1464 ft | 20 kts | 263° |
| 2026-05-01 13:38 | 48.34648 | 11.77704 | 1463 ft | 22 kts | 264° |
| 2026-05-01 13:38 | 48.34630 | 11.77468 | 1466 ft | 23 kts | 263° |
| 2026-05-01 13:38 | 48.34610 | 11.77227 | 1461 ft | 22 kts | 265° |
| 2026-05-01 13:39 | 48.34594 | 11.77003 | 1459 ft | 21 kts | 263° |
| 2026-05-01 13:39 | 48.34577 | 11.76798 | 1463 ft | 19 kts | 263° |
| 2026-05-01 13:39 | 48.34563 | 11.76612 | 1458 ft | 17 kts | 263° |
| 2026-05-01 13:39 | 48.34550 | 11.76438 | 1458 ft | 18 kts | 263° |
| 2026-05-01 13:40 | 48.34533 | 11.76209 | 1466 ft | 26 kts | 264° |
| 2026-05-01 13:40 | 48.34513 | 11.75946 | 1464 ft | 24 kts | 263° |
| 2026-05-01 13:40 | 48.34493 | 11.75708 | 1458 ft | 22 kts | 263° |
| 2026-05-01 13:40 | 48.34476 | 11.75492 | 1463 ft | 20 kts | 263° |
| 2026-05-01 13:41 | 48.34460 | 11.75302 | 1466 ft | 17 kts | 262° |
| 2026-05-01 13:41 | 48.34408 | 11.75214 | 1458 ft | 12 kts | 189° |
| 2026-05-01 13:41 | 48.34322 | 11.75223 | 1459 ft | 12 kts | 174° |
| 2026-05-01 13:41 | 48.34223 | 11.75240 | 1459 ft | 17 kts | 173° |
| 2026-05-01 13:42 | 48.34118 | 11.75259 | 1465 ft | 10 kts | 173° |
| 2026-05-01 13:42 | 48.34083 | 11.75325 | 1472 ft | 12 kts | 86° |
| 2026-05-01 13:42 | 48.34109 | 11.75646 | 1464 ft | 62 kts | 83° |
| 2026-05-01 13:42 | 48.34182 | 11.76606 | 1468 ft | 121 kts | 83° |
| 2026-05-01 13:43 | 48.34297 | 11.78100 | 1467 ft | 165 kts | 83° |
| 2026-05-01 13:43 | 48.34426 | 11.79827 | 2070 ft | 165 kts | 84° |
| 2026-05-01 13:43 | 48.34552 | 11.81539 | 2835 ft | 167 kts | 83° |
| 2026-05-01 13:43 | 48.34687 | 11.83376 | 3233 ft | 186 kts | 83° |
| 2026-05-01 13:44 | 48.34838 | 11.85401 | 3588 ft | 206 kts | 83° |
| 2026-05-01 13:44 | 48.35014 | 11.87655 | 4109 ft | 222 kts | 83° |
| 2026-05-01 13:44 | 48.35199 | 11.89993 | 4938 ft | 228 kts | 84° |
| 2026-05-01 13:44 | 48.35384 | 11.92383 | 5707 ft | 233 kts | 85° |
| 2026-05-01 13:45 | 48.35335 | 11.94816 | 6430 ft | 238 kts | 108° |
| 2026-05-01 13:45 | 48.34426 | 11.96895 | 7185 ft | 242 kts | 138° |
| 2026-05-01 13:45 | 48.33086 | 11.98466 | 7926 ft | 247 kts | 140° |
| 2026-05-01 13:45 | 48.31575 | 11.99899 | 8352 ft | 268 kts | 150° |
| 2026-05-01 13:46 | 48.29873 | 12.01189 | 9018 ft | 276 kts | 151° |
| 2026-05-01 13:46 | 48.28147 | 12.02428 | 9764 ft | 281 kts | 151° |
| 2026-05-01 13:46 | 48.26351 | 12.03694 | 10472 ft | 287 kts | 151° |
| 2026-05-01 13:46 | 48.24486 | 12.05013 | 10764 ft | 308 kts | 151° |
| 2026-05-01 13:47 | 48.22474 | 12.06450 | 10955 ft | 332 kts | 151° |
| 2026-05-01 13:47 | 48.20332 | 12.07985 | 11245 ft | 348 kts | 151° |
| 2026-05-01 13:47 | 48.18116 | 12.09570 | 11828 ft | 355 kts | 151° |
| 2026-05-01 13:47 | 48.15882 | 12.11171 | 12469 ft | 359 kts | 151° |
| 2026-05-01 13:48 | 48.13621 | 12.12792 | 13117 ft | 363 kts | 151° |
| 2026-05-01 13:48 | 48.11324 | 12.14440 | 13784 ft | 367 kts | 151° |
| 2026-05-01 13:48 | 48.09019 | 12.16092 | 14406 ft | 370 kts | 150° |
| 2026-05-01 13:48 | 48.06689 | 12.17766 | 14979 ft | 374 kts | 150° |
| 2026-05-01 13:49 | 48.04328 | 12.19457 | 15564 ft | 377 kts | 150° |
| 2026-05-01 13:49 | 48.01958 | 12.21150 | 16138 ft | 380 kts | 150° |
| 2026-05-01 13:49 | 47.99563 | 12.22860 | 16700 ft | 383 kts | 151° |
| 2026-05-01 13:49 | 47.97147 | 12.24586 | 17236 ft | 387 kts | 151° |
| 2026-05-01 13:50 | 47.94711 | 12.26322 | 17782 ft | 390 kts | 151° |
| 2026-05-01 13:50 | 47.92252 | 12.28073 | 18352 ft | 393 kts | 151° |
| 2026-05-01 13:50 | 47.89780 | 12.29830 | 18825 ft | 396 kts | 151° |
| 2026-05-01 13:50 | 47.87281 | 12.31606 | 19290 ft | 399 kts | 151° |
| 2026-05-01 13:51 | 47.84766 | 12.33392 | 19744 ft | 401 kts | 151° |
| 2026-05-01 13:51 | 47.82234 | 12.35189 | 20182 ft | 405 kts | 151° |
| 2026-05-01 13:51 | 47.79685 | 12.37001 | 20648 ft | 408 kts | 151° |
| 2026-05-01 13:51 | 47.77116 | 12.38824 | 21092 ft | 411 kts | 151° |
| 2026-05-01 13:52 | 47.74526 | 12.40658 | 21509 ft | 414 kts | 151° |
| 2026-05-01 13:52 | 47.71972 | 12.42647 | 21913 ft | 414 kts | 144° |
| 2026-05-01 13:52 | 47.69660 | 12.45168 | 22316 ft | 414 kts | 136° |
| 2026-05-01 13:52 | 47.67446 | 12.47913 | 22743 ft | 416 kts | 136° |
| 2026-05-01 13:53 | 47.65239 | 12.50643 | 23142 ft | 419 kts | 136° |
| 2026-05-01 13:53 | 47.60775 | 12.56205 | 23958 ft | 424 kts | 135° |
| 2026-05-01 13:53 | 47.58565 | 12.59116 | 24272 ft | 426 kts | 134° |
| 2026-05-01 13:54 | 47.56373 | 12.62081 | 24606 ft | 428 kts | 133° |
| 2026-05-01 13:54 | 47.54176 | 12.65082 | 24950 ft | 431 kts | 133° |
| 2026-05-01 13:54 | 47.51964 | 12.68097 | 25247 ft | 433 kts | 133° |
| 2026-05-01 13:54 | 47.49725 | 12.71122 | 25557 ft | 436 kts | 133° |
| 2026-05-01 13:55 | 47.47473 | 12.74134 | 25870 ft | 439 kts | 134° |
| 2026-05-01 13:55 | 47.45190 | 12.77163 | 26174 ft | 441 kts | 134° |
| 2026-05-01 13:55 | 47.42896 | 12.80194 | 26483 ft | 444 kts | 134° |
| 2026-05-01 13:55 | 47.40589 | 12.83240 | 26803 ft | 446 kts | 134° |
| 2026-05-01 13:56 | 47.38269 | 12.86301 | 27103 ft | 448 kts | 134° |
| 2026-05-01 13:56 | 47.35940 | 12.89376 | 27426 ft | 450 kts | 134° |
| 2026-05-01 13:56 | 47.33603 | 12.92464 | 27727 ft | 452 kts | 134° |
| 2026-05-01 13:56 | 47.31255 | 12.95567 | 28044 ft | 454 kts | 134° |
| 2026-05-01 13:57 | 47.28897 | 12.98678 | 28309 ft | 457 kts | 134° |
| 2026-05-01 13:57 | 47.27332 | 13.00739 | 28489 ft | 459 kts | 134° |
| 2026-05-01 13:57 | 47.24129 | 13.04948 | 28867 ft | 462 kts | 134° |
| 2026-05-01 13:57 | 47.21725 | 13.08106 | 29107 ft | 465 kts | 134° |
| 2026-05-01 13:58 | 47.19309 | 13.11276 | 29362 ft | 467 kts | 134° |
| 2026-05-01 13:58 | 47.16881 | 13.14456 | 29616 ft | 469 kts | 134° |
| 2026-05-01 13:58 | 47.14442 | 13.17648 | 29850 ft | 471 kts | 134° |
| 2026-05-01 13:58 | 47.11990 | 13.20851 | 30122 ft | 472 kts | 134° |
| 2026-05-01 13:59 | 47.09528 | 13.24057 | 30437 ft | 473 kts | 134° |
| 2026-05-01 13:59 | 47.07071 | 13.27252 | 30855 ft | 470 kts | 134° |
| 2026-05-01 13:59 | 47.04659 | 13.30385 | 31194 ft | 468 kts | 133° |
| 2026-05-01 13:59 | 47.02222 | 13.33545 | 31536 ft | 466 kts | 133° |
| 2026-05-01 14:00 | 47.00580 | 13.35675 | 31731 ft | 466 kts | 133° |
| 2026-05-01 14:00 | 46.97374 | 13.39833 | 32189 ft | 464 kts | 133° |
| 2026-05-01 14:00 | 46.94964 | 13.42954 | 32519 ft | 463 kts | 133° |
| 2026-05-01 14:00 | 46.92551 | 13.46074 | 32838 ft | 461 kts | 133° |
| 2026-05-01 14:01 | 46.90154 | 13.49167 | 33153 ft | 459 kts | 133° |
| 2026-05-01 14:01 | 46.87757 | 13.52257 | 33416 ft | 459 kts | 133° |
| 2026-05-01 14:01 | 46.85364 | 13.55340 | 33701 ft | 459 kts | 133° |
| 2026-05-01 14:01 | 46.82973 | 13.58417 | 34016 ft | 458 kts | 133° |
| 2026-05-01 14:02 | 46.80582 | 13.61486 | 34219 ft | 457 kts | 133° |
| 2026-05-01 14:02 | 46.78193 | 13.64550 | 34367 ft | 457 kts | 133° |
| 2026-05-01 14:02 | 46.75807 | 13.67611 | 34573 ft | 456 kts | 133° |
| 2026-05-01 14:02 | 46.73427 | 13.70662 | 34793 ft | 456 kts | 133° |
| 2026-05-01 14:03 | 46.71047 | 13.73709 | 34979 ft | 455 kts | 133° |
| 2026-05-01 14:03 | 46.68660 | 13.76761 | 35185 ft | 456 kts | 133° |
| 2026-05-01 14:03 | 46.66273 | 13.79803 | 35318 ft | 456 kts | 133° |
| 2026-05-01 14:03 | 46.63877 | 13.82849 | 35345 ft | 456 kts | 134° |
| 2026-05-01 14:04 | 46.59098 | 13.88917 | 35367 ft | 456 kts | 133° |
| 2026-05-01 14:04 | 46.55214 | 13.94072 | 35352 ft | 454 kts | 130° |
| 2026-05-01 14:05 | 46.49990 | 14.01625 | 35349 ft | 452 kts | 129° |
| 2026-05-01 14:05 | 46.45572 | 14.08042 | 35340 ft | 452 kts | 129° |
| 2026-05-01 14:06 | 46.41077 | 14.14433 | 35334 ft | 453 kts | 130° |
| 2026-05-01 14:06 | 46.36554 | 14.20783 | 35360 ft | 453 kts | 129° |
| 2026-05-01 14:07 | 46.32024 | 14.27129 | 35342 ft | 453 kts | 129° |
| 2026-05-01 14:08 | 46.25224 | 14.36656 | 35337 ft | 453 kts | 129° |
| 2026-05-01 14:08 | 46.20696 | 14.42994 | 35334 ft | 453 kts | 129° |
| 2026-05-01 14:09 | 46.16154 | 14.49324 | 35364 ft | 453 kts | 129° |
| 2026-05-01 14:09 | 46.11612 | 14.55635 | 35351 ft | 453 kts | 129° |
| 2026-05-01 14:10 | 46.07101 | 14.61899 | 35343 ft | 453 kts | 129° |
| 2026-05-01 14:10 | 46.02555 | 14.68189 | 35334 ft | 453 kts | 129° |
| 2026-05-01 14:11 | 45.98007 | 14.74467 | 35335 ft | 453 kts | 129° |
| 2026-05-01 14:11 | 45.91188 | 14.83868 | 35356 ft | 453 kts | 129° |
| 2026-05-01 14:12 | 45.86630 | 14.90133 | 35353 ft | 453 kts | 129° |
| 2026-05-01 14:12 | 45.82069 | 14.96378 | 35346 ft | 453 kts | 129° |
| 2026-05-01 14:13 | 45.78274 | 15.01558 | 35340 ft | 453 kts | 129° |
| 2026-05-01 14:13 | 45.72933 | 15.08840 | 35379 ft | 453 kts | 129° |
| 2026-05-01 14:14 | 45.69142 | 15.14001 | 35368 ft | 453 kts | 129° |
| 2026-05-01 14:14 | 45.64564 | 15.20207 | 35347 ft | 453 kts | 129° |
| 2026-05-01 14:15 | 45.59989 | 15.26390 | 35347 ft | 453 kts | 129° |
| 2026-05-01 14:15 | 45.54724 | 15.33622 | 35344 ft | 451 kts | 127° |
| 2026-05-01 14:16 | 45.51090 | 15.39014 | 35349 ft | 449 kts | 126° |
| 2026-05-01 14:16 | 45.46829 | 15.45442 | 35347 ft | 449 kts | 126° |
| 2026-05-01 14:17 | 45.42501 | 15.51860 | 35345 ft | 449 kts | 126° |
| 2026-05-01 14:17 | 45.38140 | 15.58235 | 35343 ft | 449 kts | 127° |
| 2026-05-01 14:18 | 45.33767 | 15.64592 | 35358 ft | 449 kts | 127° |
| 2026-05-01 14:18 | 45.29398 | 15.70948 | 35366 ft | 449 kts | 126° |
| 2026-05-01 14:19 | 45.25028 | 15.77299 | 35363 ft | 449 kts | 126° |
| 2026-05-01 14:19 | 45.20661 | 15.83625 | 35352 ft | 448 kts | 126° |
| 2026-05-01 14:20 | 45.14107 | 15.93091 | 35351 ft | 448 kts | 126° |
| 2026-05-01 14:21 | 45.09745 | 15.99400 | 35368 ft | 448 kts | 126° |
| 2026-05-01 14:21 | 45.05375 | 16.05690 | 35358 ft | 448 kts | 126° |
| 2026-05-01 14:22 | 44.98807 | 16.15110 | 35354 ft | 448 kts | 126° |
| 2026-05-01 14:22 | 44.94431 | 16.21361 | 35348 ft | 448 kts | 126° |
| 2026-05-01 14:23 | 44.90082 | 16.27565 | 35346 ft | 447 kts | 126° |
| 2026-05-01 14:23 | 44.85706 | 16.33797 | 35339 ft | 447 kts | 126° |
| 2026-05-01 14:24 | 44.81323 | 16.40013 | 35339 ft | 447 kts | 127° |
| 2026-05-01 14:24 | 44.76932 | 16.46228 | 35333 ft | 447 kts | 127° |
| 2026-05-01 14:25 | 44.72542 | 16.52433 | 35358 ft | 448 kts | 127° |
| 2026-05-01 14:25 | 44.68148 | 16.58638 | 35339 ft | 448 kts | 127° |
| 2026-05-01 14:26 | 44.61592 | 16.67871 | 35326 ft | 448 kts | 127° |
| 2026-05-01 14:27 | 44.57211 | 16.74020 | 35319 ft | 448 kts | 127° |
| 2026-05-01 14:27 | 44.52788 | 16.80199 | 35351 ft | 449 kts | 127° |
| 2026-05-01 14:28 | 44.46136 | 16.89479 | 35310 ft | 451 kts | 128° |
| 2026-05-01 14:28 | 44.41681 | 16.95678 | 35304 ft | 452 kts | 128° |
| 2026-05-01 14:29 | 44.37213 | 17.01868 | 35301 ft | 452 kts | 128° |
| 2026-05-01 14:30 | 44.28251 | 17.14264 | 35294 ft | 454 kts | 128° |
| 2026-05-01 14:31 | 44.21497 | 17.23577 | 35278 ft | 456 kts | 128° |
| 2026-05-01 14:31 | 44.16975 | 17.29791 | 35282 ft | 457 kts | 129° |
| 2026-05-01 14:32 | 44.12435 | 17.36017 | 35304 ft | 458 kts | 129° |
| 2026-05-01 14:32 | 44.07889 | 17.42228 | 35296 ft | 459 kts | 129° |
| 2026-05-01 14:33 | 44.03326 | 17.48456 | 35290 ft | 459 kts | 129° |
| 2026-05-01 14:33 | 43.98759 | 17.54672 | 35278 ft | 460 kts | 130° |
| 2026-05-01 14:34 | 43.94186 | 17.60893 | 35298 ft | 460 kts | 130° |
| 2026-05-01 14:34 | 43.89602 | 17.67098 | 35269 ft | 461 kts | 131° |
| 2026-05-01 14:35 | 43.85003 | 17.73309 | 35277 ft | 462 kts | 130° |
| 2026-05-01 14:35 | 43.80424 | 17.79482 | 35265 ft | 462 kts | 131° |
| 2026-05-01 14:36 | 43.75815 | 17.85693 | 35279 ft | 463 kts | 131° |
| 2026-05-01 14:36 | 43.71190 | 17.91910 | 35258 ft | 464 kts | 131° |
| 2026-05-01 14:37 | 43.66556 | 17.98110 | 35254 ft | 464 kts | 132° |
| 2026-05-01 14:37 | 43.61911 | 18.04321 | 35249 ft | 465 kts | 131° |
| 2026-05-01 14:38 | 43.57255 | 18.10538 | 35237 ft | 465 kts | 132° |
| 2026-05-01 14:38 | 43.52589 | 18.16736 | 35232 ft | 466 kts | 132° |
| 2026-05-01 14:39 | 43.47923 | 18.22928 | 35213 ft | 467 kts | 132° |
| 2026-05-01 14:39 | 43.43238 | 18.29150 | 35215 ft | 468 kts | 132° |
| 2026-05-01 14:40 | 43.38542 | 18.35363 | 35218 ft | 469 kts | 133° |
| 2026-05-01 14:40 | 43.33832 | 18.41566 | 35225 ft | 469 kts | 133° |
| 2026-05-01 14:41 | 43.29147 | 18.47713 | 35228 ft | 470 kts | 133° |
| 2026-05-01 14:41 | 43.24408 | 18.53926 | 35211 ft | 471 kts | 133° |
| 2026-05-01 14:42 | 43.19669 | 18.60145 | 35212 ft | 471 kts | 133° |
| 2026-05-01 14:42 | 43.14932 | 18.66353 | 35223 ft | 471 kts | 133° |
| 2026-05-01 14:43 | 43.10190 | 18.72538 | 35217 ft | 471 kts | 133° |
| 2026-05-01 14:43 | 43.05427 | 18.78728 | 35232 ft | 472 kts | 133° |
| 2026-05-01 14:44 | 43.00662 | 18.84914 | 35215 ft | 473 kts | 134° |
| 2026-05-01 14:44 | 42.93529 | 18.94137 | 35198 ft | 473 kts | 134° |
| 2026-05-01 14:45 | 42.86353 | 19.03402 | 35194 ft | 474 kts | 134° |
| 2026-05-01 14:46 | 42.81558 | 19.09581 | 35192 ft | 474 kts | 134° |
| 2026-05-01 14:46 | 42.74352 | 19.18836 | 35184 ft | 475 kts | 135° |
| 2026-05-01 14:47 | 42.69523 | 19.25007 | 35171 ft | 477 kts | 134° |
| 2026-05-01 14:48 | 42.62240 | 19.34290 | 35163 ft | 479 kts | 135° |
| 2026-05-01 14:48 | 42.54957 | 19.43558 | 35179 ft | 478 kts | 135° |
| 2026-05-01 14:49 | 42.45253 | 19.55856 | 35169 ft | 480 kts | 136° |
| 2026-05-01 14:50 | 42.35480 | 19.68170 | 35185 ft | 480 kts | 136° |
| 2026-05-01 14:51 | 42.28140 | 19.77392 | 35172 ft | 481 kts | 136° |
| 2026-05-01 14:52 | 42.20773 | 19.86608 | 35188 ft | 481 kts | 137° |
| 2026-05-01 14:53 | 42.13379 | 19.95832 | 35176 ft | 484 kts | 137° |
| 2026-05-01 14:53 | 42.08427 | 20.01989 | 35164 ft | 485 kts | 137° |
| 2026-05-01 14:54 | 42.03457 | 20.08145 | 35168 ft | 486 kts | 137° |
| 2026-05-01 14:54 | 41.98497 | 20.14291 | 35205 ft | 485 kts | 138° |
| 2026-05-01 14:55 | 41.93538 | 20.20436 | 35206 ft | 484 kts | 138° |
| 2026-05-01 14:55 | 41.88586 | 20.26549 | 35200 ft | 483 kts | 138° |
| 2026-05-01 14:56 | 41.83627 | 20.32645 | 35197 ft | 483 kts | 138° |
| 2026-05-01 14:56 | 41.78711 | 20.38682 | 35206 ft | 482 kts | 138° |
| 2026-05-01 14:57 | 41.73759 | 20.44745 | 35188 ft | 482 kts | 139° |
| 2026-05-01 14:57 | 41.66304 | 20.53803 | 35194 ft | 482 kts | 140° |
| 2026-05-01 14:58 | 41.61130 | 20.59502 | 35185 ft | 481 kts | 144° |
| 2026-05-01 14:58 | 41.55795 | 20.64946 | 35191 ft | 482 kts | 144° |
| 2026-05-01 14:59 | 41.50488 | 20.70393 | 35170 ft | 482 kts | 144° |
| 2026-05-01 14:59 | 41.46100 | 20.74993 | 35173 ft | 483 kts | 144° |
| 2026-05-01 15:00 | 41.38203 | 20.83325 | 35180 ft | 483 kts | 144° |
| 2026-05-01 15:01 | 41.32916 | 20.88862 | 35183 ft | 484 kts | 144° |
| 2026-05-01 15:01 | 41.27624 | 20.94376 | 35169 ft | 484 kts | 145° |
| 2026-05-01 15:02 | 41.22324 | 20.99886 | 35171 ft | 485 kts | 145° |
| 2026-05-01 15:02 | 41.17010 | 21.05401 | 35176 ft | 485 kts | 145° |
| 2026-05-01 15:03 | 41.11692 | 21.10917 | 35169 ft | 485 kts | 145° |
| 2026-05-01 15:03 | 41.06373 | 21.16424 | 35179 ft | 485 kts | 146° |
| 2026-05-01 15:04 | 41.01046 | 21.21922 | 35153 ft | 485 kts | 146° |
| 2026-05-01 15:04 | 40.95713 | 21.27425 | 35165 ft | 487 kts | 146° |
| 2026-05-01 15:05 | 40.90362 | 21.32921 | 35169 ft | 487 kts | 146° |
| 2026-05-01 15:05 | 40.85002 | 21.38328 | 35172 ft | 487 kts | 148° |
| 2026-05-01 15:06 | 40.79489 | 21.43514 | 35179 ft | 486 kts | 149° |
| 2026-05-01 15:06 | 40.73928 | 21.48595 | 35184 ft | 486 kts | 149° |
| 2026-05-01 15:07 | 40.68386 | 21.53737 | 35185 ft | 487 kts | 149° |
| 2026-05-01 15:07 | 40.62856 | 21.58912 | 35196 ft | 487 kts | 149° |
| 2026-05-01 15:08 | 40.57337 | 21.64068 | 35197 ft | 487 kts | 149° |
| 2026-05-01 15:08 | 40.51804 | 21.69212 | 35183 ft | 487 kts | 149° |
| 2026-05-01 15:09 | 40.46273 | 21.74337 | 35181 ft | 487 kts | 149° |
| 2026-05-01 15:09 | 40.40728 | 21.79458 | 35182 ft | 487 kts | 149° |
| 2026-05-01 15:10 | 40.35175 | 21.84581 | 35175 ft | 488 kts | 150° |
| 2026-05-01 15:10 | 40.26875 | 21.92217 | 35155 ft | 488 kts | 150° |
| 2026-05-01 15:11 | 40.18515 | 21.99898 | 35174 ft | 490 kts | 150° |
| 2026-05-01 15:12 | 40.12928 | 22.05000 | 35183 ft | 491 kts | 150° |
| 2026-05-01 15:12 | 40.04530 | 22.12671 | 35206 ft | 491 kts | 150° |
| 2026-05-01 15:14 | 39.90491 | 22.25442 | 35195 ft | 493 kts | 151° |
| 2026-05-01 15:14 | 39.82030 | 22.33104 | 35198 ft | 494 kts | 151° |
| 2026-05-01 15:15 | 39.70745 | 22.43294 | 35171 ft | 494 kts | 152° |
| 2026-05-01 15:16 | 39.59414 | 22.53471 | 34957 ft | 495 kts | 152° |
| 2026-05-01 15:17 | 39.53802 | 22.58508 | 34516 ft | 493 kts | 152° |
| 2026-05-01 15:18 | 39.45298 | 22.66106 | 33719 ft | 497 kts | 153° |
| 2026-05-01 15:18 | 39.42453 | 22.68634 | 33453 ft | 497 kts | 153° |
| 2026-05-01 15:19 | 39.33887 | 22.76246 | 33214 ft | 498 kts | 153° |
| 2026-05-01 15:19 | 39.25326 | 22.83867 | 33185 ft | 499 kts | 154° |
| 2026-05-01 15:20 | 39.16731 | 22.91481 | 33223 ft | 501 kts | 154° |
| 2026-05-01 15:21 | 39.11012 | 22.96517 | 33213 ft | 501 kts | 154° |
| 2026-05-01 15:21 | 39.05264 | 23.01584 | 33201 ft | 501 kts | 154° |
| 2026-05-01 15:22 | 38.96636 | 23.09157 | 33197 ft | 502 kts | 155° |
| 2026-05-01 15:22 | 38.90859 | 23.14219 | 33190 ft | 503 kts | 155° |
| 2026-05-01 15:23 | 38.85081 | 23.19278 | 33193 ft | 503 kts | 155° |
| 2026-05-01 15:23 | 38.79300 | 23.24318 | 33189 ft | 502 kts | 155° |
| 2026-05-01 15:24 | 38.73524 | 23.29353 | 33187 ft | 502 kts | 155° |
| 2026-05-01 15:24 | 38.67743 | 23.34382 | 33194 ft | 503 kts | 156° |
| 2026-05-01 15:25 | 38.61938 | 23.39413 | 33197 ft | 503 kts | 156° |
| 2026-05-01 15:25 | 38.56145 | 23.44431 | 33182 ft | 503 kts | 156° |
| 2026-05-01 15:26 | 38.50358 | 23.49445 | 33186 ft | 502 kts | 156° |
| 2026-05-01 15:26 | 38.44571 | 23.54441 | 33148 ft | 502 kts | 156° |
| 2026-05-01 15:27 | 38.38786 | 23.59421 | 33169 ft | 501 kts | 156° |
| 2026-05-01 15:28 | 38.30104 | 23.66872 | 33176 ft | 501 kts | 156° |
| 2026-05-01 15:28 | 38.24366 | 23.71781 | 33175 ft | 501 kts | 156° |
| 2026-05-01 15:29 | 38.15704 | 23.79190 | 33161 ft | 500 kts | 156° |
| 2026-05-01 15:30 | 38.04204 | 23.88982 | 33155 ft | 500 kts | 156° |
| 2026-05-01 15:31 | 37.86864 | 24.03677 | 33162 ft | 500 kts | 156° |
| 2026-05-01 15:32 | 37.75306 | 24.13428 | 33146 ft | 499 kts | 156° |
| 2026-05-01 15:34 | 37.58002 | 24.27960 | 33113 ft | 499 kts | 156° |